sensor_id;sensor_type;location;lat;lon;timestamp;P1;durP1;ratioP1;P2;durP2;ratioP2
60859;SDS011;46694;54.382;9.708;2022-10-16T00:02:18;28.20;;;13.13;;
60859;SDS011;46694;54.382;9.708;2022-10-16T00:04:58;25.07;;;12.33;;
60859;SDS011;46694;54.382;9.708;2022-10-16T00:11:41;21.20;;;12.67;;
60859;SDS011;46694;54.382;9.708;2022-10-16T00:14:21;24.70;;;13.37;;
60859;SDS011;46694;54.382;9.708;2022-10-16T00:17:00;18.30;;;12.30;;
60859;SDS011;46694;54.382;9.708;2022-10-16T00:19:40;20.00;;;13.43;;
60859;SDS011;46694;54.382;9.708;2022-10-16T00:22:20;23.97;;;12.53;;
60859;SDS011;46694;54.382;9.708;2022-10-16T00:24:59;16.53;;;11.47;;
60859;SDS011;46694;54.382;9.708;2022-10-16T00:27:38;20.47;;;11.97;;
60859;SDS011;46694;54.382;9.708;2022-10-16T00:30:18;19.67;;;12.07;;
60859;SDS011;46694;54.382;9.708;2022-10-16T00:32:58;20.40;;;10.93;;
60859;SDS011;46694;54.382;9.708;2022-10-16T00:35:37;29.23;;;11.33;;
60859;SDS011;46694;54.382;9.708;2022-10-16T00:38:17;30.23;;;11.17;;
60859;SDS011;46694;54.382;9.708;2022-10-16T00:40:57;21.37;;;10.67;;
60859;SDS011;46694;54.382;9.708;2022-10-16T00:43:53;12.90;;;9.77;;
60859;SDS011;46694;54.382;9.708;2022-10-16T00:46:37;25.80;;;10.47;;
60859;SDS011;46694;54.382;9.708;2022-10-16T00:49:19;16.00;;;10.90;;
60859;SDS011;46694;54.382;9.708;2022-10-16T00:51:59;24.33;;;10.97;;
60859;SDS011;46694;54.382;9.708;2022-10-16T00:54:39;19.27;;;10.03;;
60859;SDS011;46694;54.382;9.708;2022-10-16T00:57:18;20.67;;;9.90;;
60859;SDS011;46694;54.382;9.708;2022-10-16T00:59:59;19.63;;;11.30;;
60859;SDS011;46694;54.382;9.708;2022-10-16T01:02:39;26.63;;;10.60;;
60859;SDS011;46694;54.382;9.708;2022-10-16T01:05:18;19.23;;;9.70;;
60859;SDS011;46694;54.382;9.708;2022-10-16T01:08:13;16.13;;;10.93;;
60859;SDS011;46694;54.382;9.708;2022-10-16T01:11:22;21.90;;;9.93;;
60859;SDS011;46694;54.382;9.708;2022-10-16T01:14:25;26.47;;;10.87;;
60859;SDS011;46694;54.382;9.708;2022-10-16T01:17:22;19.63;;;10.37;;
60859;SDS011;46694;54.382;9.708;2022-10-16T01:29:03;11.40;;;8.63;;
60859;SDS011;46694;54.382;9.708;2022-10-16T01:31:50;15.90;;;9.17;;
60859;SDS011;46694;54.382;9.708;2022-10-16T01:40:41;19.53;;;8.40;;
60859;SDS011;46694;54.382;9.708;2022-10-16T01:43:31;13.00;;;8.00;;
60859;SDS011;46694;54.382;9.708;2022-10-16T01:46:16;14.97;;;8.50;;
60859;SDS011;46694;54.382;9.708;2022-10-16T01:49:00;18.20;;;7.97;;
60859;SDS011;46694;54.382;9.708;2022-10-16T01:51:41;12.00;;;9.70;;
60859;SDS011;46694;54.382;9.708;2022-10-16T01:54:27;20.70;;;8.60;;
60859;SDS011;46694;54.382;9.708;2022-10-16T01:57:09;13.83;;;8.37;;
60859;SDS011;46694;54.382;9.708;2022-10-16T01:59:52;12.07;;;7.47;;
60859;SDS011;46694;54.382;9.708;2022-10-16T02:02:35;13.03;;;7.70;;
60859;SDS011;46694;54.382;9.708;2022-10-16T02:05:20;14.00;;;8.33;;
60859;SDS011;46694;54.382;9.708;2022-10-16T02:08:06;12.70;;;8.37;;
60859;SDS011;46694;54.382;9.708;2022-10-16T02:10:46;22.73;;;8.10;;
60859;SDS011;46694;54.382;9.708;2022-10-16T02:16:16;15.17;;;6.90;;
60859;SDS011;46694;54.382;9.708;2022-10-16T02:18:56;15.43;;;7.07;;
60859;SDS011;46694;54.382;9.708;2022-10-16T02:24:43;7.07;;;6.00;;
60859;SDS011;46694;54.382;9.708;2022-10-16T02:27:51;10.77;;;6.60;;
60859;SDS011;46694;54.382;9.708;2022-10-16T02:33:51;23.13;;;7.57;;
60859;SDS011;46694;54.382;9.708;2022-10-16T02:36:32;16.53;;;7.20;;
60859;SDS011;46694;54.382;9.708;2022-10-16T02:39:12;15.23;;;6.93;;
60859;SDS011;46694;54.382;9.708;2022-10-16T02:41:53;10.60;;;7.27;;
60859;SDS011;46694;54.382;9.708;2022-10-16T02:44:33;14.90;;;6.70;;
60859;SDS011;46694;54.382;9.708;2022-10-16T02:47:12;12.27;;;7.47;;
60859;SDS011;46694;54.382;9.708;2022-10-16T02:49:52;16.07;;;6.93;;
60859;SDS011;46694;54.382;9.708;2022-10-16T02:52:32;13.57;;;6.90;;
60859;SDS011;46694;54.382;9.708;2022-10-16T02:55:12;18.10;;;7.20;;
60859;SDS011;46694;54.382;9.708;2022-10-16T02:57:51;19.53;;;6.87;;
60859;SDS011;46694;54.382;9.708;2022-10-16T03:00:31;17.43;;;7.47;;
60859;SDS011;46694;54.382;9.708;2022-10-16T03:03:11;8.83;;;6.47;;
60859;SDS011;46694;54.382;9.708;2022-10-16T03:05:50;13.20;;;6.93;;
60859;SDS011;46694;54.382;9.708;2022-10-16T03:08:30;15.97;;;5.77;;
60859;SDS011;46694;54.382;9.708;2022-10-16T03:11:09;12.43;;;6.30;;
60859;SDS011;46694;54.382;9.708;2022-10-16T03:13:48;13.50;;;5.93;;
60859;SDS011;46694;54.382;9.708;2022-10-16T03:16:28;15.83;;;6.67;;
60859;SDS011;46694;54.382;9.708;2022-10-16T03:19:08;12.50;;;5.50;;
60859;SDS011;46694;54.382;9.708;2022-10-16T03:21:47;18.93;;;5.40;;
60859;SDS011;46694;54.382;9.708;2022-10-16T03:24:27;12.63;;;5.63;;
60859;SDS011;46694;54.382;9.708;2022-10-16T03:27:07;11.03;;;5.63;;
60859;SDS011;46694;54.382;9.708;2022-10-16T03:29:46;9.43;;;5.43;;
60859;SDS011;46694;54.382;9.708;2022-10-16T03:32:26;7.60;;;5.07;;
60859;SDS011;46694;54.382;9.708;2022-10-16T03:35:07;8.83;;;5.90;;
60859;SDS011;46694;54.382;9.708;2022-10-16T03:37:47;10.53;;;5.73;;
60859;SDS011;46694;54.382;9.708;2022-10-16T03:40:26;12.10;;;6.13;;
60859;SDS011;46694;54.382;9.708;2022-10-16T03:43:06;7.70;;;6.10;;
60859;SDS011;46694;54.382;9.708;2022-10-16T03:45:45;20.27;;;6.80;;
60859;SDS011;46694;54.382;9.708;2022-10-16T03:48:25;14.37;;;5.90;;
60859;SDS011;46694;54.382;9.708;2022-10-16T03:51:04;26.57;;;5.70;;
60859;SDS011;46694;54.382;9.708;2022-10-16T03:53:44;10.93;;;5.50;;
60859;SDS011;46694;54.382;9.708;2022-10-16T03:56:24;11.23;;;5.80;;
60859;SDS011;46694;54.382;9.708;2022-10-16T03:59:03;8.90;;;6.20;;
60859;SDS011;46694;54.382;9.708;2022-10-16T04:01:42;19.70;;;5.13;;
60859;SDS011;46694;54.382;9.708;2022-10-16T04:04:22;11.83;;;5.50;;
60859;SDS011;46694;54.382;9.708;2022-10-16T04:07:01;13.27;;;5.03;;
60859;SDS011;46694;54.382;9.708;2022-10-16T04:09:41;12.80;;;5.90;;
60859;SDS011;46694;54.382;9.708;2022-10-16T04:12:21;10.83;;;5.30;;
60859;SDS011;46694;54.382;9.708;2022-10-16T04:15:00;13.07;;;6.27;;
60859;SDS011;46694;54.382;9.708;2022-10-16T04:17:40;12.70;;;6.20;;
60859;SDS011;46694;54.382;9.708;2022-10-16T04:20:20;11.13;;;5.63;;
60859;SDS011;46694;54.382;9.708;2022-10-16T04:22:59;7.43;;;4.20;;
60859;SDS011;46694;54.382;9.708;2022-10-16T04:25:39;10.27;;;4.70;;
60859;SDS011;46694;54.382;9.708;2022-10-16T04:28:18;7.00;;;4.37;;
60859;SDS011;46694;54.382;9.708;2022-10-16T04:30:58;7.77;;;5.07;;
60859;SDS011;46694;54.382;9.708;2022-10-16T04:33:38;14.40;;;5.90;;
60859;SDS011;46694;54.382;9.708;2022-10-16T04:36:17;13.07;;;5.27;;
60859;SDS011;46694;54.382;9.708;2022-10-16T04:38:57;11.80;;;4.43;;
60859;SDS011;46694;54.382;9.708;2022-10-16T04:41:36;13.00;;;5.10;;
60859;SDS011;46694;54.382;9.708;2022-10-16T04:44:16;7.63;;;4.13;;
60859;SDS011;46694;54.382;9.708;2022-10-16T04:46:55;10.63;;;4.70;;
60859;SDS011;46694;54.382;9.708;2022-10-16T04:49:35;7.47;;;3.93;;
60859;SDS011;46694;54.382;9.708;2022-10-16T04:52:15;6.23;;;3.53;;
60859;SDS011;46694;54.382;9.708;2022-10-16T04:54:54;6.33;;;3.80;;
60859;SDS011;46694;54.382;9.708;2022-10-16T04:57:38;8.57;;;4.03;;
60859;SDS011;46694;54.382;9.708;2022-10-16T05:00:19;7.53;;;3.67;;
60859;SDS011;46694;54.382;9.708;2022-10-16T05:02:58;4.47;;;3.70;;
60859;SDS011;46694;54.382;9.708;2022-10-16T05:05:43;7.83;;;3.80;;
60859;SDS011;46694;54.382;9.708;2022-10-16T05:08:23;8.50;;;3.30;;
60859;SDS011;46694;54.382;9.708;2022-10-16T05:11:03;10.37;;;2.93;;
60859;SDS011;46694;54.382;9.708;2022-10-16T05:13:43;13.23;;;2.90;;
60859;SDS011;46694;54.382;9.708;2022-10-16T05:16:22;15.50;;;3.17;;
60859;SDS011;46694;54.382;9.708;2022-10-16T05:19:02;7.20;;;3.30;;
60859;SDS011;46694;54.382;9.708;2022-10-16T05:21:42;6.73;;;2.70;;
60859;SDS011;46694;54.382;9.708;2022-10-16T05:24:21;7.50;;;2.87;;
60859;SDS011;46694;54.382;9.708;2022-10-16T05:27:01;10.40;;;3.27;;
60859;SDS011;46694;54.382;9.708;2022-10-16T05:29:40;9.77;;;3.70;;
60859;SDS011;46694;54.382;9.708;2022-10-16T05:32:19;6.17;;;3.23;;
60859;SDS011;46694;54.382;9.708;2022-10-16T05:34:59;7.87;;;2.90;;
60859;SDS011;46694;54.382;9.708;2022-10-16T05:37:39;6.00;;;2.63;;
60859;SDS011;46694;54.382;9.708;2022-10-16T05:40:19;4.93;;;2.90;;
60859;SDS011;46694;54.382;9.708;2022-10-16T05:42:59;5.63;;;2.57;;
60859;SDS011;46694;54.382;9.708;2022-10-16T05:45:38;8.90;;;2.90;;
60859;SDS011;46694;54.382;9.708;2022-10-16T05:48:18;5.77;;;2.50;;
60859;SDS011;46694;54.382;9.708;2022-10-16T05:53:38;9.27;;;3.00;;
60859;SDS011;46694;54.382;9.708;2022-10-16T05:56:19;7.10;;;3.27;;
60859;SDS011;46694;54.382;9.708;2022-10-16T05:58:59;5.30;;;2.17;;
60859;SDS011;46694;54.382;9.708;2022-10-16T06:01:38;6.70;;;3.07;;
60859;SDS011;46694;54.382;9.708;2022-10-16T06:04:18;3.50;;;2.50;;
60859;SDS011;46694;54.382;9.708;2022-10-16T06:06:58;8.90;;;3.40;;
60859;SDS011;46694;54.382;9.708;2022-10-16T06:09:41;6.57;;;3.10;;
60859;SDS011;46694;54.382;9.708;2022-10-16T06:12:20;15.40;;;3.10;;
60859;SDS011;46694;54.382;9.708;2022-10-16T06:15:00;4.93;;;3.00;;
60859;SDS011;46694;54.382;9.708;2022-10-16T06:17:40;3.83;;;2.73;;
60859;SDS011;46694;54.382;9.708;2022-10-16T06:20:19;10.27;;;3.00;;
60859;SDS011;46694;54.382;9.708;2022-10-16T06:22:59;3.73;;;2.40;;
60859;SDS011;46694;54.382;9.708;2022-10-16T06:25:38;6.10;;;2.80;;
60859;SDS011;46694;54.382;9.708;2022-10-16T06:28:18;6.10;;;2.70;;
60859;SDS011;46694;54.382;9.708;2022-10-16T06:30:58;12.50;;;2.93;;
60859;SDS011;46694;54.382;9.708;2022-10-16T06:33:39;7.90;;;2.20;;
60859;SDS011;46694;54.382;9.708;2022-10-16T06:36:19;6.70;;;2.53;;
60859;SDS011;46694;54.382;9.708;2022-10-16T06:38:59;7.40;;;3.03;;
60859;SDS011;46694;54.382;9.708;2022-10-16T06:41:39;3.03;;;2.20;;
60859;SDS011;46694;54.382;9.708;2022-10-16T06:44:18;7.80;;;2.70;;
60859;SDS011;46694;54.382;9.708;2022-10-16T06:46:58;13.63;;;2.70;;
60859;SDS011;46694;54.382;9.708;2022-10-16T06:49:38;4.83;;;2.50;;
60859;SDS011;46694;54.382;9.708;2022-10-16T06:52:17;5.03;;;2.27;;
60859;SDS011;46694;54.382;9.708;2022-10-16T06:54:57;7.10;;;3.07;;
60859;SDS011;46694;54.382;9.708;2022-10-16T06:57:36;14.47;;;5.03;;
60859;SDS011;46694;54.382;9.708;2022-10-16T07:00:16;13.77;;;5.17;;
60859;SDS011;46694;54.382;9.708;2022-10-16T07:02:55;6.80;;;2.90;;
60859;SDS011;46694;54.382;9.708;2022-10-16T07:05:39;6.93;;;2.40;;
60859;SDS011;46694;54.382;9.708;2022-10-16T07:08:20;2.27;;;2.03;;
60859;SDS011;46694;54.382;9.708;2022-10-16T07:11:00;3.90;;;1.70;;
60859;SDS011;46694;54.382;9.708;2022-10-16T07:13:45;7.50;;;2.00;;
60859;SDS011;46694;54.382;9.708;2022-10-16T07:16:26;13.10;;;6.77;;
60859;SDS011;46694;54.382;9.708;2022-10-16T07:19:08;5.43;;;2.50;;
60859;SDS011;46694;54.382;9.708;2022-10-16T07:21:50;12.27;;;4.87;;
60859;SDS011;46694;54.382;9.708;2022-10-16T07:24:29;10.80;;;5.40;;
60859;SDS011;46694;54.382;9.708;2022-10-16T07:27:09;8.07;;;3.90;;
60859;SDS011;46694;54.382;9.708;2022-10-16T07:29:49;4.03;;;2.50;;
60859;SDS011;46694;54.382;9.708;2022-10-16T07:32:28;3.93;;;2.67;;
60859;SDS011;46694;54.382;9.708;2022-10-16T07:35:08;5.73;;;3.50;;
60859;SDS011;46694;54.382;9.708;2022-10-16T07:37:48;5.27;;;1.93;;
60859;SDS011;46694;54.382;9.708;2022-10-16T07:40:27;8.13;;;2.03;;
60859;SDS011;46694;54.382;9.708;2022-10-16T07:43:07;7.13;;;2.20;;
60859;SDS011;46694;54.382;9.708;2022-10-16T07:45:47;4.13;;;2.47;;
60859;SDS011;46694;54.382;9.708;2022-10-16T07:48:29;12.23;;;3.83;;
60859;SDS011;46694;54.382;9.708;2022-10-16T07:51:11;6.10;;;3.10;;
60859;SDS011;46694;54.382;9.708;2022-10-16T07:53:53;5.13;;;2.53;;
60859;SDS011;46694;54.382;9.708;2022-10-16T07:56:33;4.60;;;2.00;;
60859;SDS011;46694;54.382;9.708;2022-10-16T07:59:13;3.63;;;2.60;;
60859;SDS011;46694;54.382;9.708;2022-10-16T08:01:53;8.60;;;2.17;;
60859;SDS011;46694;54.382;9.708;2022-10-16T08:04:32;5.40;;;2.57;;
60859;SDS011;46694;54.382;9.708;2022-10-16T08:07:12;4.27;;;2.60;;
60859;SDS011;46694;54.382;9.708;2022-10-16T08:09:51;8.83;;;4.10;;
60859;SDS011;46694;54.382;9.708;2022-10-16T08:12:31;15.20;;;4.90;;
60859;SDS011;46694;54.382;9.708;2022-10-16T08:15:11;7.33;;;3.47;;
60859;SDS011;46694;54.382;9.708;2022-10-16T08:17:58;11.27;;;4.77;;
60859;SDS011;46694;54.382;9.708;2022-10-16T08:20:40;5.10;;;4.10;;
60859;SDS011;46694;54.382;9.708;2022-10-16T08:23:21;3.30;;;2.70;;
60859;SDS011;46694;54.382;9.708;2022-10-16T08:26:05;12.23;;;5.10;;
60859;SDS011;46694;54.382;9.708;2022-10-16T08:28:49;9.40;;;3.60;;
60859;SDS011;46694;54.382;9.708;2022-10-16T08:31:30;15.50;;;4.27;;
60859;SDS011;46694;54.382;9.708;2022-10-16T08:34:09;9.40;;;4.70;;
60859;SDS011;46694;54.382;9.708;2022-10-16T08:36:49;9.87;;;6.00;;
60859;SDS011;46694;54.382;9.708;2022-10-16T08:39:32;8.57;;;5.27;;
60859;SDS011;46694;54.382;9.708;2022-10-16T08:45:14;3.63;;;2.60;;
60859;SDS011;46694;54.382;9.708;2022-10-16T08:48:23;5.23;;;2.87;;
60859;SDS011;46694;54.382;9.708;2022-10-16T08:51:29;7.20;;;2.93;;
60859;SDS011;46694;54.382;9.708;2022-10-16T08:57:18;7.03;;;2.77;;
60859;SDS011;46694;54.382;9.708;2022-10-16T09:00:04;4.60;;;2.67;;
60859;SDS011;46694;54.382;9.708;2022-10-16T09:03:01;7.63;;;2.80;;
60859;SDS011;46694;54.382;9.708;2022-10-16T09:18:45;11.50;;;3.53;;
60859;SDS011;46694;54.382;9.708;2022-10-16T09:21:36;13.70;;;4.00;;
60859;SDS011;46694;54.382;9.708;2022-10-16T09:24:25;12.53;;;3.93;;
60859;SDS011;46694;54.382;9.708;2022-10-16T09:27:07;10.87;;;5.20;;
60859;SDS011;46694;54.382;9.708;2022-10-16T09:29:51;14.70;;;5.63;;
60859;SDS011;46694;54.382;9.708;2022-10-16T09:32:31;16.17;;;4.37;;
60859;SDS011;46694;54.382;9.708;2022-10-16T09:35:16;9.93;;;3.50;;
60859;SDS011;46694;54.382;9.708;2022-10-16T09:38:04;8.70;;;2.77;;
60859;SDS011;46694;54.382;9.708;2022-10-16T09:40:44;9.57;;;2.20;;
60859;SDS011;46694;54.382;9.708;2022-10-16T09:43:30;9.80;;;2.70;;
60859;SDS011;46694;54.382;9.708;2022-10-16T09:49:23;7.47;;;2.50;;
60859;SDS011;46694;54.382;9.708;2022-10-16T09:52:14;9.87;;;3.37;;
60859;SDS011;46694;54.382;9.708;2022-10-16T09:54:56;18.70;;;3.10;;
60859;SDS011;46694;54.382;9.708;2022-10-16T09:57:52;8.00;;;2.80;;
60859;SDS011;46694;54.382;9.708;2022-10-16T10:00:32;15.40;;;2.30;;
60859;SDS011;46694;54.382;9.708;2022-10-16T10:03:12;7.07;;;1.93;;
60859;SDS011;46694;54.382;9.708;2022-10-16T10:05:52;10.17;;;2.90;;
60859;SDS011;46694;54.382;9.708;2022-10-16T10:08:32;11.93;;;3.17;;
60859;SDS011;46694;54.382;9.708;2022-10-16T10:11:11;9.40;;;3.20;;
60859;SDS011;46694;54.382;9.708;2022-10-16T10:13:51;6.30;;;2.43;;
60859;SDS011;46694;54.382;9.708;2022-10-16T10:16:30;17.13;;;6.13;;
60859;SDS011;46694;54.382;9.708;2022-10-16T10:19:20;11.37;;;3.80;;
60859;SDS011;46694;54.382;9.708;2022-10-16T10:22:12;7.87;;;3.07;;
60859;SDS011;46694;54.382;9.708;2022-10-16T10:25:18;10.97;;;2.73;;
60859;SDS011;46694;54.382;9.708;2022-10-16T10:28:27;8.03;;;3.57;;
60859;SDS011;46694;54.382;9.708;2022-10-16T10:47:40;14.37;;;2.47;;
60859;SDS011;46694;54.382;9.708;2022-10-16T10:50:52;10.33;;;2.70;;
60859;SDS011;46694;54.382;9.708;2022-10-16T11:02:32;11.83;;;2.80;;
60859;SDS011;46694;54.382;9.708;2022-10-16T11:08:19;10.47;;;1.80;;
60859;SDS011;46694;54.382;9.708;2022-10-16T11:12:09;11.13;;;2.03;;
60859;SDS011;46694;54.382;9.708;2022-10-16T11:15:15;17.80;;;2.40;;
60859;SDS011;46694;54.382;9.708;2022-10-16T11:18:16;15.60;;;3.67;;
60859;SDS011;46694;54.382;9.708;2022-10-16T11:21:04;12.00;;;2.30;;
60859;SDS011;46694;54.382;9.708;2022-10-16T11:23:57;14.00;;;1.97;;
60859;SDS011;46694;54.382;9.708;2022-10-16T11:26:52;11.10;;;2.33;;
60859;SDS011;46694;54.382;9.708;2022-10-16T11:29:33;17.60;;;2.70;;
60859;SDS011;46694;54.382;9.708;2022-10-16T11:32:34;10.20;;;1.83;;
60859;SDS011;46694;54.382;9.708;2022-10-16T11:41:34;18.37;;;2.83;;
60859;SDS011;46694;54.382;9.708;2022-10-16T11:47:26;9.37;;;1.60;;
60859;SDS011;46694;54.382;9.708;2022-10-16T11:50:17;13.73;;;2.27;;
60859;SDS011;46694;54.382;9.708;2022-10-16T11:53:16;15.83;;;2.83;;
60859;SDS011;46694;54.382;9.708;2022-10-16T11:56:45;19.50;;;2.73;;
60859;SDS011;46694;54.382;9.708;2022-10-16T11:59:31;13.63;;;2.13;;
60859;SDS011;46694;54.382;9.708;2022-10-16T12:08:09;18.03;;;2.40;;
60859;SDS011;46694;54.382;9.708;2022-10-16T12:11:05;14.40;;;2.50;;
60859;SDS011;46694;54.382;9.708;2022-10-16T12:16:51;17.70;;;2.27;;
60859;SDS011;46694;54.382;9.708;2022-10-16T12:19:32;13.17;;;2.20;;
60859;SDS011;46694;54.382;9.708;2022-10-16T12:22:17;16.33;;;3.10;;
60859;SDS011;46694;54.382;9.708;2022-10-16T12:24:57;11.13;;;1.97;;
60859;SDS011;46694;54.382;9.708;2022-10-16T12:27:37;19.40;;;2.20;;
60859;SDS011;46694;54.382;9.708;2022-10-16T12:30:20;16.27;;;2.67;;
60859;SDS011;46694;54.382;9.708;2022-10-16T12:33:06;10.00;;;1.90;;
60859;SDS011;46694;54.382;9.708;2022-10-16T12:36:16;14.40;;;2.30;;
60859;SDS011;46694;54.382;9.708;2022-10-16T12:39:20;13.50;;;2.10;;
60859;SDS011;46694;54.382;9.708;2022-10-16T12:42:05;10.80;;;1.70;;
60859;SDS011;46694;54.382;9.708;2022-10-16T12:45:02;19.77;;;2.20;;
60859;SDS011;46694;54.382;9.708;2022-10-16T12:48:19;15.47;;;2.67;;
60859;SDS011;46694;54.382;9.708;2022-10-16T13:06:08;27.33;;;3.47;;
60859;SDS011;46694;54.382;9.708;2022-10-16T13:09:07;23.87;;;3.43;;
60859;SDS011;46694;54.382;9.708;2022-10-16T13:18:15;17.33;;;5.30;;
60859;SDS011;46694;54.382;9.708;2022-10-16T13:30:45;18.60;;;2.80;;
60859;SDS011;46694;54.382;9.708;2022-10-16T13:33:33;29.13;;;3.50;;
60859;SDS011;46694;54.382;9.708;2022-10-16T13:36:20;19.20;;;3.30;;
60859;SDS011;46694;54.382;9.708;2022-10-16T13:39:23;13.63;;;1.97;;
60859;SDS011;46694;54.382;9.708;2022-10-16T13:42:16;23.33;;;2.80;;
60859;SDS011;46694;54.382;9.708;2022-10-16T13:45:16;15.73;;;2.70;;
60859;SDS011;46694;54.382;9.708;2022-10-16T13:48:04;19.80;;;3.10;;
60859;SDS011;46694;54.382;9.708;2022-10-16T13:50:57;19.33;;;3.53;;
60859;SDS011;46694;54.382;9.708;2022-10-16T13:53:54;30.67;;;4.17;;
60859;SDS011;46694;54.382;9.708;2022-10-16T13:56:38;23.40;;;3.50;;
60859;SDS011;46694;54.382;9.708;2022-10-16T13:59:23;14.77;;;3.10;;
60859;SDS011;46694;54.382;9.708;2022-10-16T14:05:14;17.40;;;2.53;;
60859;SDS011;46694;54.382;9.708;2022-10-16T14:07:54;18.67;;;2.60;;
60859;SDS011;46694;54.382;9.708;2022-10-16T14:10:34;11.20;;;1.70;;
60859;SDS011;46694;54.382;9.708;2022-10-16T14:13:16;21.57;;;3.10;;
60859;SDS011;46694;54.382;9.708;2022-10-16T14:16:00;21.00;;;3.40;;
60859;SDS011;46694;54.382;9.708;2022-10-16T14:19:13;18.03;;;3.37;;
60859;SDS011;46694;54.382;9.708;2022-10-16T14:21:58;18.93;;;2.77;;
60859;SDS011;46694;54.382;9.708;2022-10-16T14:24:40;17.57;;;3.03;;
60859;SDS011;46694;54.382;9.708;2022-10-16T14:27:25;18.57;;;2.23;;
60859;SDS011;46694;54.382;9.708;2022-10-16T14:34:25;17.53;;;2.27;;
60859;SDS011;46694;54.382;9.708;2022-10-16T14:37:19;17.00;;;2.20;;
60859;SDS011;46694;54.382;9.708;2022-10-16T14:40:11;17.33;;;2.50;;
60859;SDS011;46694;54.382;9.708;2022-10-16T14:42:54;14.20;;;3.30;;
60859;SDS011;46694;54.382;9.708;2022-10-16T14:45:34;24.30;;;2.53;;
60859;SDS011;46694;54.382;9.708;2022-10-16T14:48:16;21.90;;;2.90;;
60859;SDS011;46694;54.382;9.708;2022-10-16T14:50:57;19.90;;;2.60;;
60859;SDS011;46694;54.382;9.708;2022-10-16T14:53:37;16.47;;;2.70;;
60859;SDS011;46694;54.382;9.708;2022-10-16T14:59:40;23.23;;;3.73;;
60859;SDS011;46694;54.382;9.708;2022-10-16T15:02:42;22.57;;;3.17;;
60859;SDS011;46694;54.382;9.708;2022-10-16T15:05:24;23.70;;;3.47;;
60859;SDS011;46694;54.382;9.708;2022-10-16T15:08:05;23.03;;;3.50;;
60859;SDS011;46694;54.382;9.708;2022-10-16T15:10:45;16.80;;;3.00;;
60859;SDS011;46694;54.382;9.708;2022-10-16T15:13:25;22.87;;;2.73;;
60859;SDS011;46694;54.382;9.708;2022-10-16T15:16:04;28.90;;;3.80;;
60859;SDS011;46694;54.382;9.708;2022-10-16T15:18:48;28.90;;;4.47;;
60859;SDS011;46694;54.382;9.708;2022-10-16T15:21:29;17.87;;;3.13;;
60859;SDS011;46694;54.382;9.708;2022-10-16T15:24:13;32.63;;;5.63;;
60859;SDS011;46694;54.382;9.708;2022-10-16T15:26:54;29.90;;;3.57;;
60859;SDS011;46694;54.382;9.708;2022-10-16T15:29:33;23.77;;;3.60;;
60859;SDS011;46694;54.382;9.708;2022-10-16T15:32:13;21.27;;;3.60;;
60859;SDS011;46694;54.382;9.708;2022-10-16T15:34:52;32.50;;;4.27;;
60859;SDS011;46694;54.382;9.708;2022-10-16T15:37:32;29.47;;;3.57;;
60859;SDS011;46694;54.382;9.708;2022-10-16T15:40:12;23.43;;;4.30;;
60859;SDS011;46694;54.382;9.708;2022-10-16T15:42:52;21.17;;;4.63;;
60859;SDS011;46694;54.382;9.708;2022-10-16T15:45:31;26.40;;;3.60;;
60859;SDS011;46694;54.382;9.708;2022-10-16T15:48:11;23.87;;;3.53;;
60859;SDS011;46694;54.382;9.708;2022-10-16T15:50:52;25.33;;;4.70;;
60859;SDS011;46694;54.382;9.708;2022-10-16T15:53:32;20.87;;;4.57;;
60859;SDS011;46694;54.382;9.708;2022-10-16T15:56:13;24.53;;;4.00;;
60859;SDS011;46694;54.382;9.708;2022-10-16T15:58:53;27.83;;;3.17;;
60859;SDS011;46694;54.382;9.708;2022-10-16T16:01:33;27.13;;;4.40;;
60859;SDS011;46694;54.382;9.708;2022-10-16T16:04:14;29.93;;;4.73;;
60859;SDS011;46694;54.382;9.708;2022-10-16T16:06:55;21.17;;;3.73;;
60859;SDS011;46694;54.382;9.708;2022-10-16T16:09:34;31.83;;;4.47;;
60859;SDS011;46694;54.382;9.708;2022-10-16T16:12:15;31.10;;;4.33;;
60859;SDS011;46694;54.382;9.708;2022-10-16T16:14:54;19.07;;;3.30;;
60859;SDS011;46694;54.382;9.708;2022-10-16T16:17:34;28.60;;;3.80;;
60859;SDS011;46694;54.382;9.708;2022-10-16T16:20:14;22.47;;;3.87;;
60859;SDS011;46694;54.382;9.708;2022-10-16T16:22:54;37.57;;;4.30;;
60859;SDS011;46694;54.382;9.708;2022-10-16T16:25:34;29.77;;;3.60;;
60859;SDS011;46694;54.382;9.708;2022-10-16T16:28:13;21.20;;;4.10;;
60859;SDS011;46694;54.382;9.708;2022-10-16T16:30:53;32.30;;;3.97;;
60859;SDS011;46694;54.382;9.708;2022-10-16T16:33:32;30.50;;;4.43;;
60859;SDS011;46694;54.382;9.708;2022-10-16T16:36:12;31.67;;;4.60;;
60859;SDS011;46694;54.382;9.708;2022-10-16T16:38:52;27.77;;;4.73;;
60859;SDS011;46694;54.382;9.708;2022-10-16T16:41:31;29.70;;;5.57;;
60859;SDS011;46694;54.382;9.708;2022-10-16T16:44:11;30.37;;;3.90;;
60859;SDS011;46694;54.382;9.708;2022-10-16T16:46:52;21.77;;;4.40;;
60859;SDS011;46694;54.382;9.708;2022-10-16T16:49:32;20.63;;;4.30;;
60859;SDS011;46694;54.382;9.708;2022-10-16T16:52:13;24.40;;;5.07;;
60859;SDS011;46694;54.382;9.708;2022-10-16T16:54:53;26.63;;;4.43;;
60859;SDS011;46694;54.382;9.708;2022-10-16T16:57:33;34.87;;;5.90;;
60859;SDS011;46694;54.382;9.708;2022-10-16T17:00:12;24.13;;;4.93;;
60859;SDS011;46694;54.382;9.708;2022-10-16T17:02:52;21.67;;;3.60;;
60859;SDS011;46694;54.382;9.708;2022-10-16T17:05:32;21.63;;;4.23;;
60859;SDS011;46694;54.382;9.708;2022-10-16T17:08:12;19.67;;;4.27;;
60859;SDS011;46694;54.382;9.708;2022-10-16T17:10:51;20.13;;;4.00;;
60859;SDS011;46694;54.382;9.708;2022-10-16T17:13:34;19.50;;;3.53;;
60859;SDS011;46694;54.382;9.708;2022-10-16T17:16:16;31.30;;;5.50;;
60859;SDS011;46694;54.382;9.708;2022-10-16T17:18:58;33.33;;;5.70;;
60859;SDS011;46694;54.382;9.708;2022-10-16T17:21:40;28.50;;;6.80;;
60859;SDS011;46694;54.382;9.708;2022-10-16T17:24:20;19.93;;;4.43;;
60859;SDS011;46694;54.382;9.708;2022-10-16T17:27:00;17.90;;;3.83;;
60859;SDS011;46694;54.382;9.708;2022-10-16T17:29:39;21.57;;;3.87;;
60859;SDS011;46694;54.382;9.708;2022-10-16T17:32:19;22.60;;;4.47;;
60859;SDS011;46694;54.382;9.708;2022-10-16T17:34:59;39.37;;;5.77;;
60859;SDS011;46694;54.382;9.708;2022-10-16T17:37:39;31.17;;;5.50;;
60859;SDS011;46694;54.382;9.708;2022-10-16T17:40:19;23.10;;;4.10;;
60859;SDS011;46694;54.382;9.708;2022-10-16T17:43:00;25.07;;;4.50;;
60859;SDS011;46694;54.382;9.708;2022-10-16T17:45:40;19.23;;;3.90;;
60859;SDS011;46694;54.382;9.708;2022-10-16T17:48:20;34.10;;;6.27;;
60859;SDS011;46694;54.382;9.708;2022-10-16T17:51:00;36.93;;;7.03;;
60859;SDS011;46694;54.382;9.708;2022-10-16T17:53:46;27.37;;;6.63;;
60859;SDS011;46694;54.382;9.708;2022-10-16T17:56:28;29.37;;;5.77;;
60859;SDS011;46694;54.382;9.708;2022-10-16T17:59:08;30.10;;;5.57;;
60859;SDS011;46694;54.382;9.708;2022-10-16T18:01:49;22.77;;;5.67;;
60859;SDS011;46694;54.382;9.708;2022-10-16T18:04:29;30.87;;;6.37;;
60859;SDS011;46694;54.382;9.708;2022-10-16T18:07:08;26.93;;;5.40;;
60859;SDS011;46694;54.382;9.708;2022-10-16T18:09:48;34.83;;;6.30;;
60859;SDS011;46694;54.382;9.708;2022-10-16T18:12:28;31.93;;;6.87;;
60859;SDS011;46694;54.382;9.708;2022-10-16T18:15:08;34.87;;;7.40;;
60859;SDS011;46694;54.382;9.708;2022-10-16T18:17:48;24.67;;;6.23;;
60859;SDS011;46694;54.382;9.708;2022-10-16T18:20:28;24.23;;;4.33;;
60859;SDS011;46694;54.382;9.708;2022-10-16T18:23:08;26.10;;;4.37;;
60859;SDS011;46694;54.382;9.708;2022-10-16T18:25:50;23.30;;;4.10;;
60859;SDS011;46694;54.382;9.708;2022-10-16T18:28:30;27.03;;;4.00;;
60859;SDS011;46694;54.382;9.708;2022-10-16T18:31:11;27.97;;;5.60;;
60859;SDS011;46694;54.382;9.708;2022-10-16T18:33:54;26.40;;;4.33;;
60859;SDS011;46694;54.382;9.708;2022-10-16T18:36:34;25.20;;;4.97;;